sensor_id;sensor_type;location;lat;lon;timestamp;temperature;humidity
9998;DHT22;5038;53.064;8.624;2022-12-15T00:02:31;-5.30;99.90
9998;DHT22;5038;53.064;8.624;2022-12-15T00:05:17;-5.30;99.90
9998;DHT22;5038;53.064;8.624;2022-12-15T00:08:06;-5.30;99.90
9998;DHT22;5038;53.064;8.624;2022-12-15T00:10:52;-5.30;99.90
9998;DHT22;5038;53.064;8.624;2022-12-15T00:13:38;-5.20;99.90
9998;DHT22;5038;53.064;8.624;2022-12-15T00:16:25;-5.20;99.90
9998;DHT22;5038;53.064;8.624;2022-12-15T00:19:10;-5.20;99.90
9998;DHT22;5038;53.064;8.624;2022-12-15T00:21:55;-5.20;99.90
9998;DHT22;5038;53.064;8.624;2022-12-15T00:24:41;-5.20;99.90
9998;DHT22;5038;53.064;8.624;2022-12-15T00:27:26;-5.10;99.90
9998;DHT22;5038;53.064;8.624;2022-12-15T00:30:14;-5.10;99.90
9998;DHT22;5038;53.064;8.624;2022-12-15T00:33:06;-5.10;99.90
9998;DHT22;5038;53.064;8.624;2022-12-15T00:35:52;-5.10;99.90
9998;DHT22;5038;53.064;8.624;2022-12-15T00:38:38;-5.00;99.90
9998;DHT22;5038;53.064;8.624;2022-12-15T00:41:10;-5.00;99.90
9998;DHT22;5038;53.064;8.624;2022-12-15T00:43:39;-5.00;99.90
9998;DHT22;5038;53.064;8.624;2022-12-15T00:46:07;-5.00;99.90
9998;DHT22;5038;53.064;8.624;2022-12-15T00:48:55;-5.00;99.90
9998;DHT22;5038;53.064;8.624;2022-12-15T00:51:23;-5.00;99.90
9998;DHT22;5038;53.064;8.624;2022-12-15T00:54:09;-5.00;99.90
9998;DHT22;5038;53.064;8.624;2022-12-15T00:56:55;-4.90;99.90
9998;DHT22;5038;53.064;8.624;2022-12-15T00:59:41;-4.90;99.90
9998;DHT22;5038;53.064;8.624;2022-12-15T01:02:26;-4.90;99.90
9998;DHT22;5038;53.064;8.624;2022-12-15T01:05:13;-4.90;99.90
9998;DHT22;5038;53.064;8.624;2022-12-15T01:07:59;-4.90;99.90
9998;DHT22;5038;53.064;8.624;2022-12-15T01:10:45;-4.90;99.90
9998;DHT22;5038;53.064;8.624;2022-12-15T01:13:30;-4.80;99.90
9998;DHT22;5038;53.064;8.624;2022-12-15T01:16:16;-4.80;99.90
9998;DHT22;5038;53.064;8.624;2022-12-15T01:19:02;-4.80;99.90
9998;DHT22;5038;53.064;8.624;2022-12-15T01:21:49;-4.80;99.90
9998;DHT22;5038;53.064;8.624;2022-12-15T01:24:17;-4.80;99.90
9998;DHT22;5038;53.064;8.624;2022-12-15T01:26:45;-4.80;99.90
9998;DHT22;5038;53.064;8.624;2022-12-15T01:29:13;-4.80;99.90
9998;DHT22;5038;53.064;8.624;2022-12-15T01:31:41;-4.80;99.90
9998;DHT22;5038;53.064;8.624;2022-12-15T01:34:10;-4.70;99.90
9998;DHT22;5038;53.064;8.624;2022-12-15T01:36:38;-4.70;99.90
9998;DHT22;5038;53.064;8.624;2022-12-15T01:39:07;-4.70;99.90
9998;DHT22;5038;53.064;8.624;2022-12-15T01:41:36;-4.70;99.90
9998;DHT22;5038;53.064;8.624;2022-12-15T01:44:15;-4.70;99.90
9998;DHT22;5038;53.064;8.624;2022-12-15T01:46:44;-4.70;99.90
9998;DHT22;5038;53.064;8.624;2022-12-15T01:49:15;-4.70;99.90
9998;DHT22;5038;53.064;8.624;2022-12-15T01:51:46;-4.70;99.90
9998;DHT22;5038;53.064;8.624;2022-12-15T01:54:20;-4.60;99.90
9998;DHT22;5038;53.064;8.624;2022-12-15T01:56:53;-4.60;99.90
9998;DHT22;5038;53.064;8.624;2022-12-15T01:59:23;-4.60;99.90
9998;DHT22;5038;53.064;8.624;2022-12-15T02:01:53;-4.60;99.90
9998;DHT22;5038;53.064;8.624;2022-12-15T02:04:22;-4.60;99.90
9998;DHT22;5038;53.064;8.624;2022-12-15T02:06:51;-4.60;99.90
9998;DHT22;5038;53.064;8.624;2022-12-15T02:09:22;-4.60;99.90
9998;DHT22;5038;53.064;8.624;2022-12-15T02:11:58;-4.60;99.90
9998;DHT22;5038;53.064;8.624;2022-12-15T02:14:44;-4.60;99.90
9998;DHT22;5038;53.064;8.624;2022-12-15T02:17:24;-4.60;99.90
9998;DHT22;5038;53.064;8.624;2022-12-15T02:20:31;-4.60;99.90
9998;DHT22;5038;53.064;8.624;2022-12-15T02:23:46;-4.60;99.90
9998;DHT22;5038;53.064;8.624;2022-12-15T02:26:30;-4.60;99.90
9998;DHT22;5038;53.064;8.624;2022-12-15T02:29:16;-4.60;99.90
9998;DHT22;5038;53.064;8.624;2022-12-15T02:31:54;-4.60;99.90
9998;DHT22;5038;53.064;8.624;2022-12-15T02:34:29;-4.60;99.90
9998;DHT22;5038;53.064;8.624;2022-12-15T02:37:04;-4.60;99.90
9998;DHT22;5038;53.064;8.624;2022-12-15T02:39:33;-4.60;99.90
9998;DHT22;5038;53.064;8.624;2022-12-15T02:42:01;-4.60;99.90
9998;DHT22;5038;53.064;8.624;2022-12-15T02:44:31;-4.50;99.90
9998;DHT22;5038;53.064;8.624;2022-12-15T02:50:12;-4.50;99.90
9998;DHT22;5038;53.064;8.624;2022-12-15T02:52:54;-4.50;99.90
9998;DHT22;5038;53.064;8.624;2022-12-15T02:55:33;-4.50;99.90
9998;DHT22;5038;53.064;8.624;2022-12-15T02:58:07;-4.50;99.90
9998;DHT22;5038;53.064;8.624;2022-12-15T03:00:43;-4.50;99.90
9998;DHT22;5038;53.064;8.624;2022-12-15T03:03:16;-4.40;99.90
9998;DHT22;5038;53.064;8.624;2022-12-15T03:05:47;-4.50;99.90
9998;DHT22;5038;53.064;8.624;2022-12-15T03:08:18;-4.50;99.90
9998;DHT22;5038;53.064;8.624;2022-12-15T03:10:48;-4.50;99.90
9998;DHT22;5038;53.064;8.624;2022-12-15T03:13:21;-4.50;99.90
9998;DHT22;5038;53.064;8.624;2022-12-15T03:15:50;-4.50;99.90
9998;DHT22;5038;53.064;8.624;2022-12-15T03:18:20;-4.50;99.90
9998;DHT22;5038;53.064;8.624;2022-12-15T03:20:49;-4.50;99.90
9998;DHT22;5038;53.064;8.624;2022-12-15T03:23:17;-4.50;99.90
9998;DHT22;5038;53.064;8.624;2022-12-15T03:25:45;-4.50;99.90
9998;DHT22;5038;53.064;8.624;2022-12-15T03:28:16;-4.50;99.90
9998;DHT22;5038;53.064;8.624;2022-12-15T03:30:44;-4.50;99.90
9998;DHT22;5038;53.064;8.624;2022-12-15T03:33:16;-4.50;99.90
9998;DHT22;5038;53.064;8.624;2022-12-15T03:35:46;-4.50;99.90
9998;DHT22;5038;53.064;8.624;2022-12-15T03:38:15;-4.50;99.90
9998;DHT22;5038;53.064;8.624;2022-12-15T03:40:44;-4.50;99.90
9998;DHT22;5038;53.064;8.624;2022-12-15T03:43:12;-4.50;99.90
9998;DHT22;5038;53.064;8.624;2022-12-15T03:45:40;-4.50;99.90
9998;DHT22;5038;53.064;8.624;2022-12-15T03:48:08;-4.40;99.90
9998;DHT22;5038;53.064;8.624;2022-12-15T03:50:36;-4.40;99.90
9998;DHT22;5038;53.064;8.624;2022-12-15T03:53:05;-4.50;99.90
9998;DHT22;5038;53.064;8.624;2022-12-15T03:55:34;-4.40;99.90
9998;DHT22;5038;53.064;8.624;2022-12-15T03:58:02;-4.50;99.90
9998;DHT22;5038;53.064;8.624;2022-12-15T04:00:30;-4.40;99.90
9998;DHT22;5038;53.064;8.624;2022-12-15T04:02:58;-4.50;99.90
9998;DHT22;5038;53.064;8.624;2022-12-15T04:05:28;-4.40;99.90
9998;DHT22;5038;53.064;8.624;2022-12-15T04:07:58;-4.40;99.90
9998;DHT22;5038;53.064;8.624;2022-12-15T04:10:29;-4.40;99.90
9998;DHT22;5038;53.064;8.624;2022-12-15T04:13:02;-4.50;99.90
9998;DHT22;5038;53.064;8.624;2022-12-15T04:15:31;-4.50;99.90
9998;DHT22;5038;53.064;8.624;2022-12-15T04:18:00;-4.50;99.90
9998;DHT22;5038;53.064;8.624;2022-12-15T04:20:29;-4.50;99.90
9998;DHT22;5038;53.064;8.624;2022-12-15T04:22:59;-4.50;99.90
9998;DHT22;5038;53.064;8.624;2022-12-15T04:25:28;-4.50;99.90
9998;DHT22;5038;53.064;8.624;2022-12-15T04:28:14;-4.50;99.90
9998;DHT22;5038;53.064;8.624;2022-12-15T04:31:01;-4.50;99.90
9998;DHT22;5038;53.064;8.624;2022-12-15T04:33:52;-4.50;99.90
9998;DHT22;5038;53.064;8.624;2022-12-15T04:36:41;-4.50;99.90
9998;DHT22;5038;53.064;8.624;2022-12-15T04:39:28;-4.50;99.90
9998;DHT22;5038;53.064;8.624;2022-12-15T04:42:15;-4.50;99.90
9998;DHT22;5038;53.064;8.624;2022-12-15T04:45:02;-4.50;99.90
9998;DHT22;5038;53.064;8.624;2022-12-15T04:47:48;-4.50;99.90
9998;DHT22;5038;53.064;8.624;2022-12-15T04:50:34;-4.50;99.90
9998;DHT22;5038;53.064;8.624;2022-12-15T04:53:20;-4.50;99.90
9998;DHT22;5038;53.064;8.624;2022-12-15T04:56:09;-4.50;99.90
9998;DHT22;5038;53.064;8.624;2022-12-15T04:58:56;-4.50;99.90
9998;DHT22;5038;53.064;8.624;2022-12-15T05:01:42;-4.50;99.90
9998;DHT22;5038;53.064;8.624;2022-12-15T05:04:28;-4.50;99.90
9998;DHT22;5038;53.064;8.624;2022-12-15T05:07:14;-4.50;99.90
9998;DHT22;5038;53.064;8.624;2022-12-15T05:10:00;-4.50;99.90
9998;DHT22;5038;53.064;8.624;2022-12-15T05:12:45;-4.50;99.90
9998;DHT22;5038;53.064;8.624;2022-12-15T05:15:32;-4.60;99.90
9998;DHT22;5038;53.064;8.624;2022-12-15T05:18:18;-4.50;99.90
9998;DHT22;5038;53.064;8.624;2022-12-15T05:21:05;-4.50;99.90
9998;DHT22;5038;53.064;8.624;2022-12-15T05:23:51;-4.50;99.90
9998;DHT22;5038;53.064;8.624;2022-12-15T05:26:37;-4.50;99.90
9998;DHT22;5038;53.064;8.624;2022-12-15T05:29:22;-4.50;99.90
9998;DHT22;5038;53.064;8.624;2022-12-15T05:32:09;-4.40;99.90
9998;DHT22;5038;53.064;8.624;2022-12-15T05:34:39;-4.40;99.90
9998;DHT22;5038;53.064;8.624;2022-12-15T05:37:07;-4.40;99.90
9998;DHT22;5038;53.064;8.624;2022-12-15T05:39:35;-4.40;99.90
9998;DHT22;5038;53.064;8.624;2022-12-15T05:42:03;-4.40;99.90
9998;DHT22;5038;53.064;8.624;2022-12-15T05:44:31;-4.40;99.90
9998;DHT22;5038;53.064;8.624;2022-12-15T05:47:00;-4.30;99.90
9998;DHT22;5038;53.064;8.624;2022-12-15T05:49:29;-4.30;99.90
9998;DHT22;5038;53.064;8.624;2022-12-15T05:51:57;-4.30;99.90
9998;DHT22;5038;53.064;8.624;2022-12-15T05:54:26;-4.30;99.90
9998;DHT22;5038;53.064;8.624;2022-12-15T05:56:54;-4.30;99.90
9998;DHT22;5038;53.064;8.624;2022-12-15T05:59:22;-4.30;99.90
9998;DHT22;5038;53.064;8.624;2022-12-15T06:01:50;-4.30;99.90
9998;DHT22;5038;53.064;8.624;2022-12-15T06:04:18;-4.30;99.90
9998;DHT22;5038;53.064;8.624;2022-12-15T06:06:48;-4.30;99.90
9998;DHT22;5038;53.064;8.624;2022-12-15T06:09:16;-4.30;99.90
9998;DHT22;5038;53.064;8.624;2022-12-15T06:11:44;-4.30;99.90
9998;DHT22;5038;53.064;8.624;2022-12-15T06:14:12;-4.30;99.90
9998;DHT22;5038;53.064;8.624;2022-12-15T06:16:40;-4.30;99.90
9998;DHT22;5038;53.064;8.624;2022-12-15T06:19:17;-4.30;99.90
9998;DHT22;5038;53.064;8.624;2022-12-15T06:21:47;-4.30;99.90
9998;DHT22;5038;53.064;8.624;2022-12-15T06:24:15;-4.40;99.90
9998;DHT22;5038;53.064;8.624;2022-12-15T06:26:44;-4.30;99.90
9998;DHT22;5038;53.064;8.624;2022-12-15T06:29:15;-4.40;99.90
9998;DHT22;5038;53.064;8.624;2022-12-15T06:31:44;-4.40;99.90
9998;DHT22;5038;53.064;8.624;2022-12-15T06:34:14;-4.40;99.90
9998;DHT22;5038;53.064;8.624;2022-12-15T06:36:42;-4.40;99.90
9998;DHT22;5038;53.064;8.624;2022-12-15T06:39:14;-4.40;99.90
9998;DHT22;5038;53.064;8.624;2022-12-15T06:41:42;-4.40;99.90
9998;DHT22;5038;53.064;8.624;2022-12-15T06:44:12;-4.40;99.90
9998;DHT22;5038;53.064;8.624;2022-12-15T06:46:41;-4.40;99.90
9998;DHT22;5038;53.064;8.624;2022-12-15T06:49:12;-4.40;99.90
9998;DHT22;5038;53.064;8.624;2022-12-15T06:51:40;-4.40;99.90
9998;DHT22;5038;53.064;8.624;2022-12-15T06:54:10;-4.40;99.90
9998;DHT22;5038;53.064;8.624;2022-12-15T06:56:39;-4.40;99.90
9998;DHT22;5038;53.064;8.624;2022-12-15T06:59:10;-4.40;99.90
9998;DHT22;5038;53.064;8.624;2022-12-15T07:01:38;-4.40;99.90
9998;DHT22;5038;53.064;8.624;2022-12-15T07:04:07;-4.40;99.90
9998;DHT22;5038;53.064;8.624;2022-12-15T07:06:37;-4.40;99.90
9998;DHT22;5038;53.064;8.624;2022-12-15T07:09:09;-4.40;99.90
9998;DHT22;5038;53.064;8.624;2022-12-15T07:11:40;-4.40;99.90
9998;DHT22;5038;53.064;8.624;2022-12-15T07:14:09;-4.40;99.90
9998;DHT22;5038;53.064;8.624;2022-12-15T07:16:37;-4.40;99.90
9998;DHT22;5038;53.064;8.624;2022-12-15T07:19:09;-4.40;99.90
9998;DHT22;5038;53.064;8.624;2022-12-15T07:21:38;-4.40;99.90
9998;DHT22;5038;53.064;8.624;2022-12-15T07:24:09;-4.40;99.90
9998;DHT22;5038;53.064;8.624;2022-12-15T07:26:37;-4.40;99.90
9998;DHT22;5038;53.064;8.624;2022-12-15T07:29:08;-4.30;99.90
9998;DHT22;5038;53.064;8.624;2022-12-15T07:31:37;-4.30;99.90
9998;DHT22;5038;53.064;8.624;2022-12-15T07:34:05;-4.30;99.90
9998;DHT22;5038;53.064;8.624;2022-12-15T07:36:33;-4.30;99.90
9998;DHT22;5038;53.064;8.624;2022-12-15T07:39:02;-4.30;99.90
9998;DHT22;5038;53.064;8.624;2022-12-15T07:41:31;-4.30;99.90
9998;DHT22;5038;53.064;8.624;2022-12-15T07:43:59;-4.30;99.90
9998;DHT22;5038;53.064;8.624;2022-12-15T07:46:29;-4.30;99.90
9998;DHT22;5038;53.064;8.624;2022-12-15T07:48:57;-4.30;99.90
9998;DHT22;5038;53.064;8.624;2022-12-15T07:51:25;-4.30;99.90
9998;DHT22;5038;53.064;8.624;2022-12-15T07:53:53;-4.30;99.90
9998;DHT22;5038;53.064;8.624;2022-12-15T07:56:22;-4.20;99.90
9998;DHT22;5038;53.064;8.624;2022-12-15T07:58:50;-4.20;99.90
9998;DHT22;5038;53.064;8.624;2022-12-15T08:01:18;-4.20;99.90
9998;DHT22;5038;53.064;8.624;2022-12-15T08:03:48;-4.10;99.90
9998;DHT22;5038;53.064;8.624;2022-12-15T08:06:17;-4.10;99.90
9998;DHT22;5038;53.064;8.624;2022-12-15T08:08:45;-4.00;99.90
9998;DHT22;5038;53.064;8.624;2022-12-15T08:11:21;-4.00;99.90
9998;DHT22;5038;53.064;8.624;2022-12-15T08:13:50;-3.90;99.90
9998;DHT22;5038;53.064;8.624;2022-12-15T08:16:38;-3.90;99.90
9998;DHT22;5038;53.064;8.624;2022-12-15T08:19:10;-3.80;99.90
9998;DHT22;5038;53.064;8.624;2022-12-15T08:21:39;-3.80;99.90
9998;DHT22;5038;53.064;8.624;2022-12-15T08:24:08;-3.70;99.90
9998;DHT22;5038;53.064;8.624;2022-12-15T08:26:37;-3.60;99.90
9998;DHT22;5038;53.064;8.624;2022-12-15T08:29:07;-3.60;99.90
9998;DHT22;5038;53.064;8.624;2022-12-15T08:31:57;-3.50;99.90
9998;DHT22;5038;53.064;8.624;2022-12-15T08:34:26;-3.50;99.90
9998;DHT22;5038;53.064;8.624;2022-12-15T08:36:55;-3.40;99.90
9998;DHT22;5038;53.064;8.624;2022-12-15T08:39:23;-3.40;99.90
9998;DHT22;5038;53.064;8.624;2022-12-15T08:41:51;-3.40;99.90
9998;DHT22;5038;53.064;8.624;2022-12-15T08:44:19;-3.30;99.90
9998;DHT22;5038;53.064;8.624;2022-12-15T08:46:47;-3.20;99.90
9998;DHT22;5038;53.064;8.624;2022-12-15T08:49:17;-3.20;99.90
9998;DHT22;5038;53.064;8.624;2022-12-15T08:51:49;-3.10;99.90
9998;DHT22;5038;53.064;8.624;2022-12-15T08:54:18;-3.00;99.90
9998;DHT22;5038;53.064;8.624;2022-12-15T08:56:47;-3.00;99.90
9998;DHT22;5038;53.064;8.624;2022-12-15T08:59:15;-3.00;99.90
9998;DHT22;5038;53.064;8.624;2022-12-15T09:01:44;-2.90;99.90
9998;DHT22;5038;53.064;8.624;2022-12-15T09:04:13;-2.90;99.90
9998;DHT22;5038;53.064;8.624;2022-12-15T09:06:41;-2.80;99.90
9998;DHT22;5038;53.064;8.624;2022-12-15T09:09:15;-2.80;99.90
9998;DHT22;5038;53.064;8.624;2022-12-15T09:11:43;-2.70;99.90
9998;DHT22;5038;53.064;8.624;2022-12-15T09:14:11;-2.60;99.90
9998;DHT22;5038;53.064;8.624;2022-12-15T09:16:40;-2.60;99.90
9998;DHT22;5038;53.064;8.624;2022-12-15T09:19:08;-2.50;99.90
9998;DHT22;5038;53.064;8.624;2022-12-15T09:21:36;-2.40;99.90
9998;DHT22;5038;53.064;8.624;2022-12-15T09:24:05;-2.30;99.90
9998;DHT22;5038;53.064;8.624;2022-12-15T09:26:35;-2.20;99.90
9998;DHT22;5038;53.064;8.624;2022-12-15T09:29:03;-2.20;99.90
9998;DHT22;5038;53.064;8.624;2022-12-15T09:31:35;-2.10;99.90
9998;DHT22;5038;53.064;8.624;2022-12-15T09:34:04;-2.00;99.90
9998;DHT22;5038;53.064;8.624;2022-12-15T09:36:32;-2.00;99.90
9998;DHT22;5038;53.064;8.624;2022-12-15T09:39:00;-1.90;99.90
9998;DHT22;5038;53.064;8.624;2022-12-15T09:41:30;-1.90;99.90
9998;DHT22;5038;53.064;8.624;2022-12-15T09:44:03;-1.80;99.90
9998;DHT22;5038;53.064;8.624;2022-12-15T09:46:42;-1.80;99.90
9998;DHT22;5038;53.064;8.624;2022-12-15T09:49:24;-1.70;99.90
9998;DHT22;5038;53.064;8.624;2022-12-15T09:52:03;-1.70;99.90
9998;DHT22;5038;53.064;8.624;2022-12-15T09:54:37;-1.60;99.90
9998;DHT22;5038;53.064;8.624;2022-12-15T09:57:14;-1.60;99.90
9998;DHT22;5038;53.064;8.624;2022-12-15T09:59:55;-1.60;99.90
9998;DHT22;5038;53.064;8.624;2022-12-15T10:05:36;-1.50;99.90
9998;DHT22;5038;53.064;8.624;2022-12-15T10:08:29;-1.40;99.90
9998;DHT22;5038;53.064;8.624;2022-12-15T10:11:00;-1.40;99.90
9998;DHT22;5038;53.064;8.624;2022-12-15T10:13:37;-1.30;99.90
9998;DHT22;5038;53.064;8.624;2022-12-15T10:16:17;-1.30;99.90
9998;DHT22;5038;53.064;8.624;2022-12-15T10:18:55;-1.30;99.90
9998;DHT22;5038;53.064;8.624;2022-12-15T10:21:29;-1.20;99.90
9998;DHT22;5038;53.064;8.624;2022-12-15T10:24:08;-1.20;99.90
9998;DHT22;5038;53.064;8.624;2022-12-15T10:26:38;-1.10;99.90
9998;DHT22;5038;53.064;8.624;2022-12-15T10:29:30;-1.10;99.90
9998;DHT22;5038;53.064;8.624;2022-12-15T10:32:04;-1.00;99.90
9998;DHT22;5038;53.064;8.624;2022-12-15T10:34:36;-1.00;99.90
9998;DHT22;5038;53.064;8.624;2022-12-15T10:37:08;-1.00;99.90
9998;DHT22;5038;53.064;8.624;2022-12-15T10:39:42;-0.90;99.90
9998;DHT22;5038;53.064;8.624;2022-12-15T10:42:13;-0.90;99.90
9998;DHT22;5038;53.064;8.624;2022-12-15T10:44:43;-0.80;99.90
9998;DHT22;5038;53.064;8.624;2022-12-15T10:47:20;-0.80;99.90
9998;DHT22;5038;53.064;8.624;2022-12-15T10:49:49;-0.70;99.90
9998;DHT22;5038;53.064;8.624;2022-12-15T10:52:23;-0.60;99.90
9998;DHT22;5038;53.064;8.624;2022-12-15T10:54:53;-0.60;99.90
9998;DHT22;5038;53.064;8.624;2022-12-15T10:57:24;-0.60;99.90
9998;DHT22;5038;53.064;8.624;2022-12-15T10:59:55;-0.50;99.90
9998;DHT22;5038;53.064;8.624;2022-12-15T11:02:31;-0.40;99.90
9998;DHT22;5038;53.064;8.624;2022-12-15T11:05:08;-0.40;99.90
9998;DHT22;5038;53.064;8.624;2022-12-15T11:07:44;-0.30;99.90
9998;DHT22;5038;53.064;8.624;2022-12-15T11:10:19;-0.20;99.90
9998;DHT22;5038;53.064;8.624;2022-12-15T11:12:58;-0.20;99.90
9998;DHT22;5038;53.064;8.624;2022-12-15T11:15:47;-0.10;99.90
9998;DHT22;5038;53.064;8.624;2022-12-15T11:18:29;-0.10;99.90
9998;DHT22;5038;53.064;8.624;2022-12-15T11:21:03;0.00;99.90
9998;DHT22;5038;53.064;8.624;2022-12-15T11:23:49;0.00;99.90
9998;DHT22;5038;53.064;8.624;2022-12-15T11:26:34;0.00;99.90
9998;DHT22;5038;53.064;8.624;2022-12-15T11:29:12;0.10;99.90
9998;DHT22;5038;53.064;8.624;2022-12-15T11:31:42;0.10;99.90
9998;DHT22;5038;53.064;8.624;2022-12-15T11:34:18;0.20;99.90
9998;DHT22;5038;53.064;8.624;2022-12-15T11:37:02;0.20;99.90
9998;DHT22;5038;53.064;8.624;2022-12-15T11:39:44;0.30;99.90
9998;DHT22;5038;53.064;8.624;2022-12-15T11:42:23;0.30;99.90
9998;DHT22;5038;53.064;8.624;2022-12-15T11:45:02;0.40;99.90
9998;DHT22;5038;53.064;8.624;2022-12-15T11:47:37;0.40;99.90
9998;DHT22;5038;53.064;8.624;2022-12-15T11:50:22;0.50;99.90
9998;DHT22;5038;53.064;8.624;2022-12-15T11:53:06;0.50;99.90
9998;DHT22;5038;53.064;8.624;2022-12-15T11:55:43;0.60;99.90
9998;DHT22;5038;53.064;8.624;2022-12-15T11:58:23;0.60;99.90
9998;DHT22;5038;53.064;8.624;2022-12-15T12:01:01;0.60;99.90
9998;DHT22;5038;53.064;8.624;2022-12-15T12:03:39;0.70;99.90
9998;DHT22;5038;53.064;8.624;2022-12-15T12:06:18;0.70;99.90
9998;DHT22;5038;53.064;8.624;2022-12-15T12:09:01;0.80;99.90
9998;DHT22;5038;53.064;8.624;2022-12-15T12:11:35;0.80;99.90
9998;DHT22;5038;53.064;8.624;2022-12-15T12:14:12;0.90;99.90
9998;DHT22;5038;53.064;8.624;2022-12-15T12:16:54;0.90;99.90
9998;DHT22;5038;53.064;8.624;2022-12-15T12:19:46;0.90;99.90
9998;DHT22;5038;53.064;8.624;2022-12-15T12:22:22;1.00;99.90
9998;DHT22;5038;53.064;8.624;2022-12-15T12:24:55;1.00;99.90
9998;DHT22;5038;53.064;8.624;2022-12-15T12:27:31;1.00;99.90
9998;DHT22;5038;53.064;8.624;2022-12-15T12:30:11;1.00;99.90
9998;DHT22;5038;53.064;8.624;2022-12-15T12:32:51;1.10;99.90
9998;DHT22;5038;53.064;8.624;2022-12-15T12:35:26;1.10;99.90
9998;DHT22;5038;53.064;8.624;2022-12-15T12:38:09;1.10;99.90
9998;DHT22;5038;53.064;8.624;2022-12-15T12:40:54;1.10;99.90
9998;DHT22;5038;53.064;8.624;2022-12-15T12:43:32;1.10;99.90
9998;DHT22;5038;53.064;8.624;2022-12-15T12:46:09;1.10;99.90
9998;DHT22;5038;53.064;8.624;2022-12-15T12:48:47;1.20;99.90
9998;DHT22;5038;53.064;8.624;2022-12-15T12:51:29;1.20;99.90
9998;DHT22;5038;53.064;8.624;2022-12-15T12:54:00;1.20;99.90
9998;DHT22;5038;53.064;8.624;2022-12-15T12:56:40;1.20;99.90
9998;DHT22;5038;53.064;8.624;2022-12-15T12:59:35;1.30;99.90
9998;DHT22;5038;53.064;8.624;2022-12-15T13:02:44;1.30;99.90
9998;DHT22;5038;53.064;8.624;2022-12-15T13:05:27;1.30;99.90
9998;DHT22;5038;53.064;8.624;2022-12-15T13:08:16;1.30;99.90
9998;DHT22;5038;53.064;8.624;2022-12-15T13:10:47;1.30;99.90
9998;DHT22;5038;53.064;8.624;2022-12-15T13:13:41;1.30;99.90
9998;DHT22;5038;53.064;8.624;2022-12-15T13:16:20;1.40;99.90
9998;DHT22;5038;53.064;8.624;2022-12-15T13:22:50;1.40;99.90
9998;DHT22;5038;53.064;8.624;2022-12-15T13:25:38;1.40;99.90
9998;DHT22;5038;53.064;8.624;2022-12-15T13:28:44;1.40;99.90
9998;DHT22;5038;53.064;8.624;2022-12-15T13:31:29;1.50;99.90
9998;DHT22;5038;53.064;8.624;2022-12-15T13:34:11;1.50;99.90
9998;DHT22;5038;53.064;8.624;2022-12-15T13:37:04;1.50;99.90
9998;DHT22;5038;53.064;8.624;2022-12-15T13:39:55;1.50;99.90
9998;DHT22;5038;53.064;8.624;2022-12-15T13:42:44;1.50;99.90
9998;DHT22;5038;53.064;8.624;2022-12-15T13:45:43;1.50;99.90
9998;DHT22;5038;53.064;8.624;2022-12-15T13:48:35;1.60;99.90
9998;DHT22;5038;53.064;8.624;2022-12-15T13:51:25;1.60;99.90
9998;DHT22;5038;53.064;8.624;2022-12-15T13:53:59;1.60;99.90
9998;DHT22;5038;53.064;8.624;2022-12-15T13:57:01;1.60;99.90
9998;DHT22;5038;53.064;8.624;2022-12-15T13:59:40;1.60;99.90
9998;DHT22;5038;53.064;8.624;2022-12-15T14:02:27;1.60;99.90
9998;DHT22;5038;53.064;8.624;2022-12-15T14:05:05;1.60;99.90
9998;DHT22;5038;53.064;8.624;2022-12-15T14:07:39;1.60;99.90
9998;DHT22;5038;53.064;8.624;2022-12-15T14:10:16;1.60;99.90
9998;DHT22;5038;53.064;8.624;2022-12-15T14:12:48;1.60;99.90
9998;DHT22;5038;53.064;8.624;2022-12-15T14:15:22;1.50;99.90
9998;DHT22;5038;53.064;8.624;2022-12-15T14:17:59;1.50;99.90
9998;DHT22;5038;53.064;8.624;2022-12-15T14:20:30;1.50;99.90
9998;DHT22;5038;53.064;8.624;2022-12-15T14:23:00;1.50;99.90
9998;DHT22;5038;53.064;8.624;2022-12-15T14:25:29;1.50;99.90
9998;DHT22;5038;53.064;8.624;2022-12-15T14:27:57;1.50;99.90
9998;DHT22;5038;53.064;8.624;2022-12-15T14:30:35;1.40;99.90
9998;DHT22;5038;53.064;8.624;2022-12-15T14:33:08;1.40;99.90
9998;DHT22;5038;53.064;8.624;2022-12-15T14:35:44;1.40;99.90
9998;DHT22;5038;53.064;8.624;2022-12-15T14:38:21;1.40;99.90
9998;DHT22;5038;53.064;8.624;2022-12-15T14:40:54;1.40;99.90
9998;DHT22;5038;53.064;8.624;2022-12-15T14:43:27;1.30;99.90
9998;DHT22;5038;53.064;8.624;2022-12-15T14:46:06;1.30;99.90
9998;DHT22;5038;53.064;8.624;2022-12-15T14:48:48;1.30;99.90
9998;DHT22;5038;53.064;8.624;2022-12-15T14:51:27;1.20;99.90
9998;DHT22;5038;53.064;8.624;2022-12-15T14:53:58;1.20;99.90
9998;DHT22;5038;53.064;8.624;2022-12-15T14:56:28;1.20;99.90
9998;DHT22;5038;53.064;8.624;2022-12-15T14:59:01;1.20;99.90
9998;DHT22;5038;53.064;8.624;2022-12-15T15:01:36;1.10;99.90
9998;DHT22;5038;53.064;8.624;2022-12-15T15:04:25;1.10;99.90
9998;DHT22;5038;53.064;8.624;2022-12-15T15:06:56;1.10;99.90
9998;DHT22;5038;53.064;8.624;2022-12-15T15:09:29;1.10;99.90
9998;DHT22;5038;53.064;8.624;2022-12-15T15:12:02;1.00;99.90
9998;DHT22;5038;53.064;8.624;2022-12-15T15:14:39;1.00;99.90
9998;DHT22;5038;53.064;8.624;2022-12-15T15:17:19;0.90;99.90
9998;DHT22;5038;53.064;8.624;2022-12-15T15:19:55;0.90;99.90
9998;DHT22;5038;53.064;8.624;2022-12-15T15:22:37;0.80;99.90
9998;DHT22;5038;53.064;8.624;2022-12-15T15:25:26;0.80;99.90
9998;DHT22;5038;53.064;8.624;2022-12-15T15:28:12;0.70;99.90
9998;DHT22;5038;53.064;8.624;2022-12-15T15:30:44;0.70;99.90
9998;DHT22;5038;53.064;8.624;2022-12-15T15:33:16;0.70;99.90
9998;DHT22;5038;53.064;8.624;2022-12-15T15:35:51;0.60;99.90
9998;DHT22;5038;53.064;8.624;2022-12-15T15:38:25;0.60;99.90
9998;DHT22;5038;53.064;8.624;2022-12-15T15:41:08;0.60;99.90
9998;DHT22;5038;53.064;8.624;2022-12-15T15:43:39;0.50;99.90
9998;DHT22;5038;53.064;8.624;2022-12-15T15:46:14;0.50;99.90
9998;DHT22;5038;53.064;8.624;2022-12-15T15:48:47;0.40;99.90
9998;DHT22;5038;53.064;8.624;2022-12-15T15:51:23;0.40;99.90
9998;DHT22;5038;53.064;8.624;2022-12-15T15:54:00;0.40;99.90
9998;DHT22;5038;53.064;8.624;2022-12-15T15:56:30;0.40;99.90
9998;DHT22;5038;53.064;8.624;2022-12-15T15:59:08;0.30;99.90
9998;DHT22;5038;53.064;8.624;2022-12-15T16:01:40;0.30;99.90
9998;DHT22;5038;53.064;8.624;2022-12-15T16:04:10;0.30;99.90
9998;DHT22;5038;53.064;8.624;2022-12-15T16:06:40;0.20;99.90
9998;DHT22;5038;53.064;8.624;2022-12-15T16:09:23;0.20;99.90
9998;DHT22;5038;53.064;8.624;2022-12-15T16:11:52;0.20;99.90
9998;DHT22;5038;53.064;8.624;2022-12-15T16:14:23;0.20;99.90
9998;DHT22;5038;53.064;8.624;2022-12-15T16:16:51;0.10;99.90
9998;DHT22;5038;53.064;8.624;2022-12-15T16:19:25;0.10;99.90
9998;DHT22;5038;53.064;8.624;2022-12-15T16:22:14;0.10;99.90
9998;DHT22;5038;53.064;8.624;2022-12-15T16:24:49;0.00;99.90
9998;DHT22;5038;53.064;8.624;2022-12-15T16:27:17;0.00;99.90
9998;DHT22;5038;53.064;8.624;2022-12-15T16:29:46;0.00;99.90
9998;DHT22;5038;53.064;8.624;2022-12-15T16:32:15;-0.10;99.90
9998;DHT22;5038;53.064;8.624;2022-12-15T16:34:44;-0.10;99.90
9998;DHT22;5038;53.064;8.624;2022-12-15T16:37:24;-0.10;99.90
9998;DHT22;5038;53.064;8.624;2022-12-15T16:40:00;-0.10;99.90
9998;DHT22;5038;53.064;8.624;2022-12-15T16:42:31;-0.20;99.90
9998;DHT22;5038;53.064;8.624;2022-12-15T16:45:13;-0.20;99.90
9998;DHT22;5038;53.064;8.624;2022-12-15T16:47:44;-0.20;99.90
9998;DHT22;5038;53.064;8.624;2022-12-15T16:50:14;-0.20;99.90
9998;DHT22;5038;53.064;8.624;2022-12-15T16:52:46;-0.30;99.90
9998;DHT22;5038;53.064;8.624;2022-12-15T16:55:20;-0.30;99.90
9998;DHT22;5038;53.064;8.624;2022-12-15T16:57:49;-0.30;99.90
9998;DHT22;5038;53.064;8.624;2022-12-15T17:00:19;-0.40;99.90
9998;DHT22;5038;53.064;8.624;2022-12-15T17:02:48;-0.40;99.90
9998;DHT22;5038;53.064;8.624;2022-12-15T17:05:16;-0.40;99.90
9998;DHT22;5038;53.064;8.624;2022-12-15T17:07:49;-0.40;99.90
9998;DHT22;5038;53.064;8.624;2022-12-15T17:10:36;-0.40;99.90
9998;DHT22;5038;53.064;8.624;2022-12-15T17:13:06;-0.40;99.90